sensor_id;sensor_type;location;lat;lon;timestamp;pressure;altitude;pressure_sealevel;temperature;humidity
69842;BME280;57138;51.326;-0.068;2022-12-18T00:02:12;100367.25;;;-1.44;96.28
69842;BME280;57138;51.326;-0.068;2022-12-18T00:04:38;100413.81;;;-1.22;96.76
69842;BME280;57138;51.326;-0.068;2022-12-18T00:07:03;100396.19;;;-1.33;96.65
69842;BME280;57138;51.326;-0.068;2022-12-18T00:09:29;100372.50;;;-1.44;96.88
69842;BME280;57138;51.326;-0.068;2022-12-18T00:11:54;100418.63;;;-1.16;97.04
69842;BME280;57138;51.326;-0.068;2022-12-18T00:14:20;100395.97;;;-1.30;96.46
69842;BME280;57138;51.326;-0.068;2022-12-18T00:16:46;100416.09;;;-1.17;96.91
69842;BME280;57138;51.326;-0.068;2022-12-18T00:19:13;100381.09;;;-1.29;96.96
69842;BME280;57138;51.326;-0.068;2022-12-18T00:21:39;100377.81;;;-1.33;97.02
69842;BME280;57138;51.326;-0.068;2022-12-18T00:24:04;100325.53;;;-1.60;96.90
69842;BME280;57138;51.326;-0.068;2022-12-18T00:26:32;100363.16;;;-1.35;96.10
69842;BME280;57138;51.326;-0.068;2022-12-18T00:29:03;100342.50;;;-1.40;96.60
69842;BME280;57138;51.326;-0.068;2022-12-18T00:31:28;100327.53;;;-1.51;96.34
69842;BME280;57138;51.326;-0.068;2022-12-18T00:33:55;100353.91;;;-1.28;96.25
69842;BME280;57138;51.326;-0.068;2022-12-18T00:36:24;100387.13;;;-1.16;96.51
69842;BME280;57138;51.326;-0.068;2022-12-18T00:38:50;100359.69;;;-1.36;96.38
69842;BME280;57138;51.326;-0.068;2022-12-18T00:41:17;100391.66;;;-1.18;96.52
69842;BME280;57138;51.326;-0.068;2022-12-18T00:44:04;100380.22;;;-1.17;96.28
69842;BME280;57138;51.326;-0.068;2022-12-18T00:46:30;100346.66;;;-1.37;95.94
69842;BME280;57138;51.326;-0.068;2022-12-18T00:48:55;100380.22;;;-1.17;95.71
69842;BME280;57138;51.326;-0.068;2022-12-18T00:51:21;100365.34;;;-1.29;96.01
69842;BME280;57138;51.326;-0.068;2022-12-18T00:53:46;100343.13;;;-1.36;95.90
69842;BME280;57138;51.326;-0.068;2022-12-18T00:56:12;100348.34;;;-1.36;95.64
69842;BME280;57138;51.326;-0.068;2022-12-18T00:58:37;100358.53;;;-1.32;95.55
69842;BME280;57138;51.326;-0.068;2022-12-18T01:01:06;100391.75;;;-1.19;95.66
69842;BME280;57138;51.326;-0.068;2022-12-18T01:03:32;100354.00;;;-1.30;95.61
69842;BME280;57138;51.326;-0.068;2022-12-18T01:05:58;100358.19;;;-1.27;95.21
69842;BME280;57138;51.326;-0.068;2022-12-18T01:08:23;100368.66;;;-1.14;95.64
69842;BME280;57138;51.326;-0.068;2022-12-18T01:10:49;100302.94;;;-1.50;95.14
69842;BME280;57138;51.326;-0.068;2022-12-18T01:13:15;100354.00;;;-1.17;94.92
69842;BME280;57138;51.326;-0.068;2022-12-18T01:15:40;100338.78;;;-1.24;95.10
69842;BME280;57138;51.326;-0.068;2022-12-18T01:18:12;100329.84;;;-1.22;95.25
69842;BME280;57138;51.326;-0.068;2022-12-18T01:20:38;100348.31;;;-1.11;94.78
69842;BME280;57138;51.326;-0.068;2022-12-18T01:23:03;100350.72;;;-1.07;94.23
69842;BME280;57138;51.326;-0.068;2022-12-18T01:25:28;100329.50;;;-1.17;94.51
69842;BME280;57138;51.326;-0.068;2022-12-18T01:27:54;100307.19;;;-1.23;94.72
69842;BME280;57138;51.326;-0.068;2022-12-18T01:30:19;100325.63;;;-1.12;94.77
69842;BME280;57138;51.326;-0.068;2022-12-18T01:32:45;100280.38;;;-1.39;95.08
69842;BME280;57138;51.326;-0.068;2022-12-18T01:35:10;100335.41;;;-1.14;94.41
69842;BME280;57138;51.326;-0.068;2022-12-18T01:37:36;100315.34;;;-1.15;94.89
69842;BME280;57138;51.326;-0.068;2022-12-18T01:40:01;100303.16;;;-1.16;94.80
69842;BME280;57138;51.326;-0.068;2022-12-18T01:42:27;100318.63;;;-1.00;94.12
69842;BME280;57138;51.326;-0.068;2022-12-18T01:45:04;100315.91;;;-0.98;93.90
69842;BME280;57138;51.326;-0.068;2022-12-18T01:47:46;100310.44;;;-0.95;93.97
69842;BME280;57138;51.326;-0.068;2022-12-18T01:50:16;100301.63;;;-0.94;93.71
69842;BME280;57138;51.326;-0.068;2022-12-18T01:52:48;100308.66;;;-0.95;93.41
69842;BME280;57138;51.326;-0.068;2022-12-18T01:55:17;100295.75;;;-0.98;93.12
69842;BME280;57138;51.326;-0.068;2022-12-18T01:57:43;100264.78;;;-1.17;93.16
69842;BME280;57138;51.326;-0.068;2022-12-18T02:00:15;100308.31;;;-0.90;92.90
69842;BME280;57138;51.326;-0.068;2022-12-18T02:02:41;100259.66;;;-1.18;92.69
69842;BME280;57138;51.326;-0.068;2022-12-18T02:05:09;100245.88;;;-1.22;92.98
69842;BME280;57138;51.326;-0.068;2022-12-18T02:07:37;100309.97;;;-0.89;92.75
69842;BME280;57138;51.326;-0.068;2022-12-18T02:28:09;100339.59;;;-0.87;92.30
69842;BME280;57138;51.326;-0.068;2022-12-18T02:30:36;100332.66;;;-0.88;92.45
69842;BME280;57138;51.326;-0.068;2022-12-18T02:33:05;100342.56;;;-0.92;92.38
69842;BME280;57138;51.326;-0.068;2022-12-18T02:35:32;100297.75;;;-1.25;92.20
69842;BME280;57138;51.326;-0.068;2022-12-18T02:37:59;100354.31;;;-0.97;92.39
69842;BME280;57138;51.326;-0.068;2022-12-18T02:40:27;100354.22;;;-0.96;92.44
69842;BME280;57138;51.326;-0.068;2022-12-18T02:42:53;100321.31;;;-1.13;92.19
69842;BME280;57138;51.326;-0.068;2022-12-18T02:45:18;100341.66;;;-1.03;92.74
69842;BME280;57138;51.326;-0.068;2022-12-18T02:47:46;100356.13;;;-0.98;92.21
69842;BME280;57138;51.326;-0.068;2022-12-18T02:52:45;100350.97;;;-0.99;92.08
69842;BME280;57138;51.326;-0.068;2022-12-18T02:55:24;100358.00;;;-1.00;91.86
69842;BME280;57138;51.326;-0.068;2022-12-18T02:57:59;100355.25;;;-0.98;91.77
69842;BME280;57138;51.326;-0.068;2022-12-18T03:00:40;100333.59;;;-1.13;91.69
69842;BME280;57138;51.326;-0.068;2022-12-18T03:03:30;100322.72;;;-1.20;92.04
69842;BME280;57138;51.326;-0.068;2022-12-18T03:06:00;100356.72;;;-0.94;92.07
69842;BME280;57138;51.326;-0.068;2022-12-18T03:08:33;100346.94;;;-0.92;91.69
69842;BME280;57138;51.326;-0.068;2022-12-18T03:11:07;100336.66;;;-0.95;91.67
69842;BME280;57138;51.326;-0.068;2022-12-18T03:13:37;100299.38;;;-1.12;91.71
69842;BME280;57138;51.326;-0.068;2022-12-18T03:16:06;100325.47;;;-0.97;91.50
69842;BME280;57138;51.326;-0.068;2022-12-18T03:18:50;100315.91;;;-0.98;91.46
69842;BME280;57138;51.326;-0.068;2022-12-18T03:21:24;100292.78;;;-1.17;91.94
69842;BME280;57138;51.326;-0.068;2022-12-18T03:23:52;100297.69;;;-1.13;91.77
69842;BME280;57138;51.326;-0.068;2022-12-18T03:26:22;100281.47;;;-1.18;92.01
69842;BME280;57138;51.326;-0.068;2022-12-18T03:29:12;100292.22;;;-1.10;92.04
69842;BME280;57138;51.326;-0.068;2022-12-18T03:31:44;100316.59;;;-1.07;91.83
69842;BME280;57138;51.326;-0.068;2022-12-18T03:34:16;100305.97;;;-1.06;91.78
69842;BME280;57138;51.326;-0.068;2022-12-18T03:36:43;100277.03;;;-1.17;92.26
69842;BME280;57138;51.326;-0.068;2022-12-18T03:39:08;100299.66;;;-1.03;91.91
69842;BME280;57138;51.326;-0.068;2022-12-18T03:41:51;100281.34;;;-1.16;91.91
69842;BME280;57138;51.326;-0.068;2022-12-18T03:44:28;100274.41;;;-1.17;92.05
69842;BME280;57138;51.326;-0.068;2022-12-18T03:49:38;100246.66;;;-1.33;92.37
69842;BME280;57138;51.326;-0.068;2022-12-18T03:52:11;100273.47;;;-1.16;92.18
69842;BME280;57138;51.326;-0.068;2022-12-18T03:54:39;100298.94;;;-1.05;92.07
69842;BME280;57138;51.326;-0.068;2022-12-18T03:57:11;100289.38;;;-1.06;92.05
69842;BME280;57138;51.326;-0.068;2022-12-18T03:59:39;100285.94;;;-1.07;92.75
69842;BME280;57138;51.326;-0.068;2022-12-18T04:02:06;100209.63;;;-1.52;92.00
69842;BME280;57138;51.326;-0.068;2022-12-18T04:04:34;100262.28;;;-1.18;92.52
69842;BME280;57138;51.326;-0.068;2022-12-18T04:07:01;100272.91;;;-1.09;92.75
69842;BME280;57138;51.326;-0.068;2022-12-18T04:09:27;100278.16;;;-1.09;92.47
69842;BME280;57138;51.326;-0.068;2022-12-18T04:11:53;100259.13;;;-1.23;92.75
69842;BME280;57138;51.326;-0.068;2022-12-18T04:14:18;100280.06;;;-1.11;92.73
69842;BME280;57138;51.326;-0.068;2022-12-18T04:16:44;100280.91;;;-1.10;92.67
69842;BME280;57138;51.326;-0.068;2022-12-18T04:19:09;100279.22;;;-1.11;92.88
69842;BME280;57138;51.326;-0.068;2022-12-18T04:21:35;100259.97;;;-1.23;92.45
69842;BME280;57138;51.326;-0.068;2022-12-18T04:24:00;100276.72;;;-1.13;92.59
69842;BME280;57138;51.326;-0.068;2022-12-18T04:26:25;100273.16;;;-1.12;92.74
69842;BME280;57138;51.326;-0.068;2022-12-18T04:28:51;100266.22;;;-1.13;92.83
69842;BME280;57138;51.326;-0.068;2022-12-18T04:31:16;100240.47;;;-1.32;92.75
69842;BME280;57138;51.326;-0.068;2022-12-18T04:33:42;100278.50;;;-1.13;93.13
69842;BME280;57138;51.326;-0.068;2022-12-18T04:36:07;100283.66;;;-1.12;93.12
69842;BME280;57138;51.326;-0.068;2022-12-18T04:38:33;100266.97;;;-1.11;92.94
69842;BME280;57138;51.326;-0.068;2022-12-18T04:40:58;100265.38;;;-1.13;93.40
69842;BME280;57138;51.326;-0.068;2022-12-18T04:43:24;100269.34;;;-1.07;93.63
69842;BME280;57138;51.326;-0.068;2022-12-18T04:45:49;100223.91;;;-1.32;93.08
69842;BME280;57138;51.326;-0.068;2022-12-18T04:48:15;100269.00;;;-1.03;93.64
69842;BME280;57138;51.326;-0.068;2022-12-18T04:50:41;100253.84;;;-1.11;93.24
69842;BME280;57138;51.326;-0.068;2022-12-18T04:53:06;100236.19;;;-1.09;93.72
69842;BME280;57138;51.326;-0.068;2022-12-18T04:55:31;100247.44;;;-0.95;93.35
69842;BME280;57138;51.326;-0.068;2022-12-18T04:57:57;100228.56;;;-1.00;93.64
69842;BME280;57138;51.326;-0.068;2022-12-18T05:00:22;100228.13;;;-0.94;93.47
69842;BME280;57138;51.326;-0.068;2022-12-18T05:02:48;100202.44;;;-1.02;93.78
69842;BME280;57138;51.326;-0.068;2022-12-18T05:05:14;100220.28;;;-0.83;93.72
69842;BME280;57138;51.326;-0.068;2022-12-18T05:07:39;100189.09;;;-0.99;93.80
69842;BME280;57138;51.326;-0.068;2022-12-18T05:10:08;100191.16;;;-0.91;94.02
69842;BME280;57138;51.326;-0.068;2022-12-18T05:12:34;100186.59;;;-1.00;93.71
69842;BME280;57138;51.326;-0.068;2022-12-18T05:15:19;100205.97;;;-0.79;93.69
69842;BME280;57138;51.326;-0.068;2022-12-18T05:17:46;100171.47;;;-0.85;94.15
69842;BME280;57138;51.326;-0.068;2022-12-18T05:20:13;100171.63;;;-0.76;93.90
69842;BME280;57138;51.326;-0.068;2022-12-18T05:22:39;100169.09;;;-0.77;93.69
69842;BME280;57138;51.326;-0.068;2022-12-18T05:25:04;100172.94;;;-0.70;93.55
69842;BME280;57138;51.326;-0.068;2022-12-18T05:27:30;100180.13;;;-0.61;93.35
69842;BME280;57138;51.326;-0.068;2022-12-18T05:29:55;100141.41;;;-0.81;93.08
69842;BME280;57138;51.326;-0.068;2022-12-18T05:32:21;100129.38;;;-0.84;92.99
69842;BME280;57138;51.326;-0.068;2022-12-18T05:34:46;100148.47;;;-0.70;93.14
69842;BME280;57138;51.326;-0.068;2022-12-18T05:37:12;100121.59;;;-0.85;92.90
69842;BME280;57138;51.326;-0.068;2022-12-18T05:39:37;100177.63;;;-0.51;93.12
69842;BME280;57138;51.326;-0.068;2022-12-18T05:42:03;100141.09;;;-0.65;93.13
69842;BME280;57138;51.326;-0.068;2022-12-18T05:44:28;100129.84;;;-0.67;93.03
69842;BME280;57138;51.326;-0.068;2022-12-18T05:46:54;100132.13;;;-0.63;93.14
69842;BME280;57138;51.326;-0.068;2022-12-18T05:49:19;100076.72;;;-0.94;93.14
69842;BME280;57138;51.326;-0.068;2022-12-18T05:51:46;100135.38;;;-0.59;93.07
69842;BME280;57138;51.326;-0.068;2022-12-18T05:54:11;100158.03;;;-0.47;92.69
69842;BME280;57138;51.326;-0.068;2022-12-18T05:56:37;100156.13;;;-0.45;92.88
69842;BME280;57138;51.326;-0.068;2022-12-18T05:59:02;100134.75;;;-0.51;93.35
69842;BME280;57138;51.326;-0.068;2022-12-18T06:01:27;100093.56;;;-0.74;92.89
69842;BME280;57138;51.326;-0.068;2022-12-18T06:03:53;100132.72;;;-0.48;93.16
69842;BME280;57138;51.326;-0.068;2022-12-18T06:06:24;100108.38;;;-0.61;93.54
69842;BME280;57138;51.326;-0.068;2022-12-18T06:08:54;100127.47;;;-0.48;93.69
69842;BME280;57138;51.326;-0.068;2022-12-18T06:11:24;100115.28;;;-0.49;93.58
69842;BME280;57138;51.326;-0.068;2022-12-18T06:13:54;100107.16;;;-0.46;93.51
69842;BME280;57138;51.326;-0.068;2022-12-18T06:16:20;100072.56;;;-0.62;93.49
69842;BME280;57138;51.326;-0.068;2022-12-18T06:18:45;100107.16;;;-0.46;94.04
69842;BME280;57138;51.326;-0.068;2022-12-18T06:21:11;100122.94;;;-0.46;93.57
69842;BME280;57138;51.326;-0.068;2022-12-18T06:23:36;100067.06;;;-0.70;93.82
69842;BME280;57138;51.326;-0.068;2022-12-18T06:26:10;100094.28;;;-0.49;93.45
69842;BME280;57138;51.326;-0.068;2022-12-18T06:28:36;100073.28;;;-0.60;94.02
69842;BME280;57138;51.326;-0.068;2022-12-18T06:31:03;100069.94;;;-0.51;93.90
69842;BME280;57138;51.326;-0.068;2022-12-18T06:33:29;100068.72;;;-0.47;93.81
69842;BME280;57138;51.326;-0.068;2022-12-18T06:36:00;100050.69;;;-0.51;93.58
69842;BME280;57138;51.326;-0.068;2022-12-18T06:38:26;100027.09;;;-0.63;93.52
69842;BME280;57138;51.326;-0.068;2022-12-18T06:40:52;100067.31;;;-0.51;93.45
69842;BME280;57138;51.326;-0.068;2022-12-18T06:43:17;100027.44;;;-0.67;93.38
69842;BME280;57138;51.326;-0.068;2022-12-18T06:45:43;100057.88;;;-0.53;93.24
69842;BME280;57138;51.326;-0.068;2022-12-18T06:48:08;100051.78;;;-0.54;93.21
69842;BME280;57138;51.326;-0.068;2022-12-18T06:50:33;100050.34;;;-0.58;93.04
69842;BME280;57138;51.326;-0.068;2022-12-18T06:52:59;100044.63;;;-0.63;93.51
69842;BME280;57138;51.326;-0.068;2022-12-18T06:55:25;100024.59;;;-0.76;93.24
69842;BME280;57138;51.326;-0.068;2022-12-18T06:57:51;100027.81;;;-0.72;93.32
69842;BME280;57138;51.326;-0.068;2022-12-18T07:00:16;100054.53;;;-0.56;93.15
69842;BME280;57138;51.326;-0.068;2022-12-18T07:02:42;100046.06;;;-0.59;92.98
69842;BME280;57138;51.326;-0.068;2022-12-18T07:05:07;100017.41;;;-0.74;93.18
69842;BME280;57138;51.326;-0.068;2022-12-18T07:07:34;100011.72;;;-0.79;92.96
69842;BME280;57138;51.326;-0.068;2022-12-18T07:10:00;100054.19;;;-0.51;93.06
69842;BME280;57138;51.326;-0.068;2022-12-18T07:12:27;100029.81;;;-0.64;93.45
69842;BME280;57138;51.326;-0.068;2022-12-18T07:14:52;100051.56;;;-0.51;93.49
69842;BME280;57138;51.326;-0.068;2022-12-18T07:17:17;100005.16;;;-0.73;93.24
69842;BME280;57138;51.326;-0.068;2022-12-18T07:19:43;100040.56;;;-0.45;93.09
69842;BME280;57138;51.326;-0.068;2022-12-18T07:22:08;100025.78;;;-0.57;93.22
69842;BME280;57138;51.326;-0.068;2022-12-18T07:24:34;100036.25;;;-0.46;92.79
69842;BME280;57138;51.326;-0.068;2022-12-18T07:27:00;100022.19;;;-0.56;93.08
69842;BME280;57138;51.326;-0.068;2022-12-18T07:29:25;100014.44;;;-0.58;92.92
69842;BME280;57138;51.326;-0.068;2022-12-18T07:31:50;100007.16;;;-0.65;92.68
69842;BME280;57138;51.326;-0.068;2022-12-18T07:34:16;100006.94;;;-0.62;92.86
69842;BME280;57138;51.326;-0.068;2022-12-18T07:36:41;100009.31;;;-0.59;92.63
69842;BME280;57138;51.326;-0.068;2022-12-18T07:39:07;99987.09;;;-0.55;92.69
69842;BME280;57138;51.326;-0.068;2022-12-18T07:41:32;99980.44;;;-0.59;93.08
69842;BME280;57138;51.326;-0.068;2022-12-18T07:43:58;99972.06;;;-0.64;92.71
69842;BME280;57138;51.326;-0.068;2022-12-18T07:46:23;99999.72;;;-0.49;92.73
69842;BME280;57138;51.326;-0.068;2022-12-18T07:48:49;99958.34;;;-0.68;93.07
69842;BME280;57138;51.326;-0.068;2022-12-18T07:51:14;99971.78;;;-0.50;93.08
69842;BME280;57138;51.326;-0.068;2022-12-18T07:53:40;99960.94;;;-0.57;93.17
69842;BME280;57138;51.326;-0.068;2022-12-18T07:56:08;99952.25;;;-0.57;93.08
69842;BME280;57138;51.326;-0.068;2022-12-18T07:58:35;99950.06;;;-0.52;93.59
69842;BME280;57138;51.326;-0.068;2022-12-18T08:01:08;99962.00;;;-0.48;93.28
69842;BME280;57138;51.326;-0.068;2022-12-18T08:03:40;99939.56;;;-0.52;93.12
69842;BME280;57138;51.326;-0.068;2022-12-18T08:06:08;99958.75;;;-0.40;93.15
69842;BME280;57138;51.326;-0.068;2022-12-18T08:08:35;99943.38;;;-0.45;93.18
69842;BME280;57138;51.326;-0.068;2022-12-18T08:11:01;99937.91;;;-0.53;92.83
69842;BME280;57138;51.326;-0.068;2022-12-18T08:13:27;99968.66;;;-0.32;92.53
69842;BME280;57138;51.326;-0.068;2022-12-18T08:16:05;99972.69;;;-0.28;92.52
69842;BME280;57138;51.326;-0.068;2022-12-18T08:18:35;99959.59;;;-0.40;91.69
69842;BME280;57138;51.326;-0.068;2022-12-18T08:21:15;99986.31;;;-0.23;91.97
69842;BME280;57138;51.326;-0.068;2022-12-18T08:23:42;99968.59;;;-0.21;92.14
69842;BME280;57138;51.326;-0.068;2022-12-18T08:26:08;99960.03;;;-0.23;92.00
69842;BME280;57138;51.326;-0.068;2022-12-18T08:28:34;99948.34;;;-0.30;91.98
69842;BME280;57138;51.326;-0.068;2022-12-18T08:31:00;99963.84;;;-0.27;92.05
69842;BME280;57138;51.326;-0.068;2022-12-18T08:33:26;99940.56;;;-0.32;91.88
69842;BME280;57138;51.326;-0.068;2022-12-18T08:35:52;99975.03;;;-0.14;91.57
69842;BME280;57138;51.326;-0.068;2022-12-18T08:38:19;99977.53;;;-0.12;92.00
69842;BME280;57138;51.326;-0.068;2022-12-18T08:40:44;99930.00;;;-0.42;91.62
69842;BME280;57138;51.326;-0.068;2022-12-18T08:43:10;99950.00;;;-0.29;92.21
69842;BME280;57138;51.326;-0.068;2022-12-18T08:45:55;99966.34;;;-0.26;92.08
69842;BME280;57138;51.326;-0.068;2022-12-18T08:48:20;99964.78;;;-0.28;92.21
69842;BME280;57138;51.326;-0.068;2022-12-18T08:50:58;99964.09;;;-0.30;92.60
69842;BME280;57138;51.326;-0.068;2022-12-18T08:53:25;99968.59;;;-0.21;92.44
69842;BME280;57138;51.326;-0.068;2022-12-18T08:55:50;99989.13;;;-0.15;92.37
69842;BME280;57138;51.326;-0.068;2022-12-18T08:58:15;99995.69;;;-0.09;92.27
69842;BME280;57138;51.326;-0.068;2022-12-18T09:00:41;100004.41;;;-0.09;92.35
69842;BME280;57138;51.326;-0.068;2022-12-18T09:03:18;99999.84;;;-0.07;92.08
69842;BME280;57138;51.326;-0.068;2022-12-18T09:05:45;99986.69;;;-0.07;92.49
69842;BME280;57138;51.326;-0.068;2022-12-18T09:08:11;99970.09;;;-0.07;92.74
69842;BME280;57138;51.326;-0.068;2022-12-18T09:10:45;99960.09;;;-0.13;92.75
69842;BME280;57138;51.326;-0.068;2022-12-18T09:13:11;99938.75;;;-0.20;92.46
69842;BME280;57138;51.326;-0.068;2022-12-18T09:15:45;99942.78;;;-0.16;92.10
69842;BME280;57138;51.326;-0.068;2022-12-18T09:18:12;99903.53;;;-0.29;91.70
69842;BME280;57138;51.326;-0.068;2022-12-18T09:20:38;99947.53;;;-0.10;92.25
69842;BME280;57138;51.326;-0.068;2022-12-18T09:23:05;99946.00;;;-0.12;91.80
69842;BME280;57138;51.326;-0.068;2022-12-18T09:25:31;99945.63;;;-0.08;91.73
69842;BME280;57138;51.326;-0.068;2022-12-18T09:28:18;99990.94;;;0.06;91.33
69842;BME280;57138;51.326;-0.068;2022-12-18T09:30:48;99970.25;;;0.12;91.26
69842;BME280;57138;51.326;-0.068;2022-12-18T09:33:15;99970.25;;;0.12;90.64
69842;BME280;57138;51.326;-0.068;2022-12-18T09:35:42;99942.50;;;-0.02;90.67
69842;BME280;57138;51.326;-0.068;2022-12-18T09:38:11;99974.41;;;0.15;90.16
69842;BME280;57138;51.326;-0.068;2022-12-18T09:40:48;99963.72;;;0.07;90.41
69842;BME280;57138;51.326;-0.068;2022-12-18T09:43:18;99994.13;;;0.21;90.22
69842;BME280;57138;51.326;-0.068;2022-12-18T09:45:48;99976.91;;;0.16;89.92
69842;BME280;57138;51.326;-0.068;2022-12-18T09:48:31;99978.59;;;0.17;90.14
69842;BME280;57138;51.326;-0.068;2022-12-18T09:51:02;99972.16;;;0.10;89.45
69842;BME280;57138;51.326;-0.068;2022-12-18T09:53:32;99983.97;;;0.16;89.66
69842;BME280;57138;51.326;-0.068;2022-12-18T09:56:01;99977.50;;;0.20;89.11
69842;BME280;57138;51.326;-0.068;2022-12-18T09:58:43;99985.84;;;0.25;89.55
69842;BME280;57138;51.326;-0.068;2022-12-18T10:01:12;99985.25;;;0.22;89.16
69842;BME280;57138;51.326;-0.068;2022-12-18T10:03:39;99976.09;;;0.16;89.30
69842;BME280;57138;51.326;-0.068;2022-12-18T10:06:22;100004.94;;;0.27;89.31
69842;BME280;57138;51.326;-0.068;2022-12-18T10:14:22;99995.13;;;0.29;88.79
69842;BME280;57138;51.326;-0.068;2022-12-18T10:27:55;99985.13;;;0.44;88.68
69842;BME280;57138;51.326;-0.068;2022-12-18T10:30:23;99990.97;;;0.48;88.69
69842;BME280;57138;51.326;-0.068;2022-12-18T10:32:49;99944.09;;;0.32;88.82
69842;BME280;57138;51.326;-0.068;2022-12-18T10:35:24;99996.81;;;0.51;89.08
69842;BME280;57138;51.326;-0.068;2022-12-18T10:38:02;99982.69;;;0.52;88.43
69842;BME280;57138;51.326;-0.068;2022-12-18T10:40:28;99948.84;;;0.38;88.26
69842;BME280;57138;51.326;-0.068;2022-12-18T10:43:12;99973.31;;;0.60;89.12
69842;BME280;57138;51.326;-0.068;2022-12-18T10:45:38;99958.63;;;0.57;88.94
69842;BME280;57138;51.326;-0.068;2022-12-18T10:48:04;99951.81;;;0.54;89.03
69842;BME280;57138;51.326;-0.068;2022-12-18T10:50:47;99953.41;;;0.67;88.92
69842;BME280;57138;51.326;-0.068;2022-12-18T10:53:19;99942.06;;;0.66;89.29
69842;BME280;57138;51.326;-0.068;2022-12-18T10:55:46;99926.41;;;0.65;89.37
69842;BME280;57138;51.326;-0.068;2022-12-18T11:00:44;99917.03;;;0.72;89.76
69842;BME280;57138;51.326;-0.068;2022-12-18T11:03:29;99917.84;;;0.73;90.34
69842;BME280;57138;51.326;-0.068;2022-12-18T11:06:13;99910.22;;;0.69;90.50
69842;BME280;57138;51.326;-0.068;2022-12-18T11:08:41;99914.78;;;0.67;91.03
69842;BME280;57138;51.326;-0.068;2022-12-18T11:11:24;99907.84;;;0.66;91.37
69842;BME280;57138;51.326;-0.068;2022-12-18T11:14:05;99905.63;;;0.71;91.78
69842;BME280;57138;51.326;-0.068;2022-12-18T11:16:37;99915.22;;;0.73;92.03
69842;BME280;57138;51.326;-0.068;2022-12-18T11:19:24;99905.97;;;0.78;92.25
69842;BME280;57138;51.326;-0.068;2022-12-18T11:21:51;99895.84;;;0.74;92.56
69842;BME280;57138;51.326;-0.068;2022-12-18T11:26:49;99860.06;;;0.61;93.66
69842;BME280;57138;51.326;-0.068;2022-12-18T11:29:22;99879.47;;;0.70;93.47
69842;BME280;57138;51.326;-0.068;2022-12-18T11:31:49;99889.91;;;0.81;93.73
69842;BME280;57138;51.326;-0.068;2022-12-18T11:36:46;99820.09;;;0.37;94.96
69842;BME280;57138;51.326;-0.068;2022-12-18T11:39:27;99881.13;;;0.71;95.18
69842;BME280;57138;51.326;-0.068;2022-12-18T11:49:47;99867.31;;;0.79;96.58
69842;BME280;57138;51.326;-0.068;2022-12-18T11:54:40;99817.97;;;0.61;96.56
69842;BME280;57138;51.326;-0.068;2022-12-18T11:59:48;99877.84;;;0.88;97.85
69842;BME280;57138;51.326;-0.068;2022-12-18T12:02:38;99875.09;;;0.90;97.54
69842;BME280;57138;51.326;-0.068;2022-12-18T12:08:03;99840.59;;;0.93;97.95
69842;BME280;57138;51.326;-0.068;2022-12-18T12:10:42;99802.75;;;0.75;97.78
69842;BME280;57138;51.326;-0.068;2022-12-18T12:16:22;99816.91;;;0.93;98.26
69842;BME280;57138;51.326;-0.068;2022-12-18T12:21:41;99807.50;;;1.00;98.06
69842;BME280;57138;51.326;-0.068;2022-12-18T12:24:37;99792.53;;;1.01;98.27
69842;BME280;57138;51.326;-0.068;2022-12-18T12:27:24;99786.19;;;1.03;97.86
69842;BME280;57138;51.326;-0.068;2022-12-18T12:29:59;99782.59;;;1.04;98.12
69842;BME280;57138;51.326;-0.068;2022-12-18T12:32:42;99778.97;;;1.05;98.02
69842;BME280;57138;51.326;-0.068;2022-12-18T12:38:05;99768.28;;;1.07;98.28
69842;BME280;57138;51.326;-0.068;2022-12-18T12:40:35;99753.19;;;0.99;98.17
69842;BME280;57138;51.326;-0.068;2022-12-18T12:43:38;99764.84;;;1.06;99.22
69842;BME280;57138;51.326;-0.068;2022-12-18T12:46:08;99699.84;;;0.78;99.16
69842;BME280;57138;51.326;-0.068;2022-12-18T12:48:36;99740.16;;;1.07;99.20
69842;BME280;57138;51.326;-0.068;2022-12-18T12:51:26;99720.75;;;1.08;99.29
69842;BME280;57138;51.326;-0.068;2022-12-18T12:53:54;99710.38;;;0.97;99.67
69842;BME280;57138;51.326;-0.068;2022-12-18T12:56:22;99726.03;;;1.08;99.62
69842;BME280;57138;51.326;-0.068;2022-12-18T12:58:58;99734.88;;;1.07;99.76
69842;BME280;57138;51.326;-0.068;2022-12-18T13:20:39;99696.78;;;1.12;100.00
69842;BME280;57138;51.326;-0.068;2022-12-18T13:25:53;99691.38;;;1.13;100.00
69842;BME280;57138;51.326;-0.068;2022-12-18T13:31:13;99684.44;;;1.12;100.00
69842;BME280;57138;51.326;-0.068;2022-12-18T13:36:23;99667.53;;;1.15;100.00
69842;BME280;57138;51.326;-0.068;2022-12-18T13:41:42;99669.50;;;1.13;100.00
69842;BME280;57138;51.326;-0.068;2022-12-18T13:44:32;99669.22;;;1.16;100.00
69842;BME280;57138;51.326;-0.068;2022-12-18T13:46:58;99640.41;;;1.04;100.00
69842;BME280;57138;51.326;-0.068;2022-12-18T13:49:44;99652.41;;;1.17;100.00
69842;BME280;57138;51.326;-0.068;2022-12-18T13:52:22;99617.56;;;0.95;100.00
69842;BME280;57138;51.326;-0.068;2022-12-18T13:54:53;99634.00;;;1.17;100.00
69842;BME280;57138;51.326;-0.068;2022-12-18T13:57:37;99616.84;;;1.13;100.00
69842;BME280;57138;51.326;-0.068;2022-12-18T14:00:28;99634.00;;;1.17;100.00
69842;BME280;57138;51.326;-0.068;2022-12-18T14:02:55;99613.25;;;1.04;100.00
69842;BME280;57138;51.326;-0.068;2022-12-18T14:05:26;99618.19;;;1.17;100.00
69842;BME280;57138;51.326;-0.068;2022-12-18T14:07:52;99591.06;;;1.06;100.00
69842;BME280;57138;51.326;-0.068;2022-12-18T14:10:18;99576.13;;;0.97;100.00
69842;BME280;57138;51.326;-0.068;2022-12-18T14:12:48;99607.38;;;1.20;100.00
69842;BME280;57138;51.326;-0.068;2022-12-18T14:17:55;99590.91;;;1.18;100.00
69842;BME280;57138;51.326;-0.068;2022-12-18T14:20:24;99610.44;;;1.15;100.00
69842;BME280;57138;51.326;-0.068;2022-12-18T14:22:50;99590.22;;;1.16;100.00
69842;BME280;57138;51.326;-0.068;2022-12-18T14:25:29;99596.13;;;1.28;100.00
69842;BME280;57138;51.326;-0.068;2022-12-18T14:30:43;99595.97;;;1.29;100.00
69842;BME280;57138;51.326;-0.068;2022-12-18T14:35:51;99593.75;;;1.34;100.00
69842;BME280;57138;51.326;-0.068;2022-12-18T14:40:43;99561.44;;;1.32;100.00
69842;BME280;57138;51.326;-0.068;2022-12-18T14:43:12;99562.53;;;1.39;100.00
69842;BME280;57138;51.326;-0.068;2022-12-18T14:45:42;99566.44;;;1.35;100.00
69842;BME280;57138;51.326;-0.068;2022-12-18T14:50:35;99565.97;;;1.50;100.00
69842;BME280;57138;51.326;-0.068;2022-12-18T14:53:01;99556.53;;;1.47;100.00